Time;durP1;ratioP1;P1;durP2;ratioP2;P2;SDS_P1;SDS_P2;PMS_P1;PMS_P2;Temp;Humidity;BMP_temperature;BMP_pressure;BME280_temperature;BME280_humidity;BME280_pressure;Samples;Min_cycle;Max_cycle;Signal;HPM_P1;HPM_P2
2022/06/16 00:00:02;;;;;;;10.23;3.77;;;12.70;99.90;;;;;;4407532;28;654901;-68
2022/06/16 00:02:52;;;;;;;11.80;3.57;;;12.50;99.90;;;;;;4402299;28;655526;-68
2022/06/16 00:05:41;;;;;;;8.80;3.70;;;12.50;99.90;;;;;;4385238;28;655181;-68
2022/06/16 00:08:28;;;;;;;7.43;3.80;;;12.40;99.90;;;;;;4386149;28;655560;-68
2022/06/16 00:11:19;;;;;;;7.43;3.60;;;12.40;99.90;;;;;;4389225;28;654363;-68
2022/06/16 00:14:06;;;;;;;8.90;3.50;;;12.40;99.90;;;;;;4383845;28;654908;-68
2022/06/16 00:16:54;;;;;;;10.17;3.33;;;12.30;99.90;;;;;;4409049;28;654719;-68
2022/06/16 00:19:42;;;;;;;6.90;3.33;;;12.30;99.90;;;;;;4384171;28;655701;-68
2022/06/16 00:22:30;;;;;;;7.80;3.40;;;12.30;99.90;;;;;;4408364;28;654375;-68
2022/06/16 00:25:17;;;;;;;7.63;3.72;;;12.30;99.90;;;;;;4408716;28;654350;-68
2022/06/16 00:28:04;;;;;;;9.37;3.70;;;12.20;99.90;;;;;;4408865;28;655511;-68
2022/06/16 00:30:52;;;;;;;8.10;3.93;;;12.20;99.90;;;;;;4388149;28;654512;-68
2022/06/16 00:33:39;;;;;;;9.93;3.63;;;12.20;99.90;;;;;;4412017;28;654943;-68
2022/06/16 00:36:27;;;;;;;10.20;3.83;;;12.20;99.90;;;;;;4383528;28;654232;-69
2022/06/16 00:39:14;;;;;;;8.37;3.47;;;12.10;99.90;;;;;;4411639;28;655552;-68
2022/06/16 00:42:08;;;;;;;12.30;3.50;;;12.00;99.90;;;;;;4384985;28;655060;-68
2022/06/16 00:44:56;;;;;;;11.60;3.87;;;11.90;99.90;;;;;;4379152;28;655800;-69
2022/06/16 00:47:44;;;;;;;10.40;4.03;;;11.80;99.90;;;;;;4409284;28;655189;-68
2022/06/16 00:50:31;;;;;;;8.13;3.90;;;11.80;99.90;;;;;;4390867;28;655693;-68
2022/06/16 00:53:19;;;;;;;10.17;3.83;;;11.70;99.90;;;;;;4401129;28;655503;-68
2022/06/16 00:56:06;;;;;;;8.67;3.90;;;11.70;99.90;;;;;;4384133;28;655430;-68
2022/06/16 00:58:54;;;;;;;11.77;3.70;;;11.60;99.90;;;;;;4413679;28;654619;-68
2022/06/16 01:01:42;;;;;;;10.63;4.30;;;11.60;99.90;;;;;;4387492;28;655381;-68
2022/06/16 01:07:36;;;;;;;12.53;4.10;;;11.50;99.90;;;;;;4387680;28;655638;-68
2022/06/16 01:10:25;;;;;;;9.60;4.00;;;11.60;99.90;;;;;;4391273;28;655680;-69
2022/06/16 01:16:25;;;;;;;10.40;4.20;;;11.50;99.90;;;;;;4392904;28;655023;-68
2022/06/16 01:19:17;;;;;;;9.63;4.33;;;11.40;99.90;;;;;;4383794;28;656395;-68
2022/06/16 01:22:07;;;;;;;9.47;4.50;;;11.40;99.90;;;;;;4390748;28;654266;-68
2022/06/16 01:25:02;;;;;;;13.40;4.87;;;11.50;99.90;;;;;;4394994;28;654865;-68
2022/06/16 01:28:24;;;;;;;9.48;4.60;;;11.50;99.90;;;;;;4389282;28;655329;-68
2022/06/16 01:31:16;;;;;;;8.20;4.60;;;11.50;99.90;;;;;;4318632;28;655073;-68
2022/06/16 01:34:06;;;;;;;10.13;4.43;;;11.60;99.90;;;;;;4312585;28;654673;-69
2022/06/16 01:36:55;;;;;;;10.83;4.50;;;11.50;99.90;;;;;;4356279;28;656563;-68
2022/06/16 01:39:44;;;;;;;10.53;4.77;;;11.50;99.90;;;;;;4360854;28;656659;-68
2022/06/16 01:42:33;;;;;;;9.47;4.90;;;11.50;99.90;;;;;;4365759;28;655787;-68
2022/06/16 01:45:23;;;;;;;11.50;4.80;;;11.50;99.90;;;;;;4388610;28;655403;-69
2022/06/16 01:48:12;;;;;;;12.05;4.70;;;11.60;99.90;;;;;;4390525;28;655501;-68
2022/06/16 01:51:00;;;;;;;9.87;4.80;;;11.50;99.90;;;;;;4404631;28;655615;-68
2022/06/16 01:53:49;;;;;;;11.07;4.60;;;11.40;99.90;;;;;;4389116;28;655497;-68
2022/06/16 01:56:39;;;;;;;8.23;4.73;;;11.40;99.90;;;;;;4384171;28;655539;-68
2022/06/16 01:59:28;;;;;;;11.00;4.40;;;11.30;99.90;;;;;;4371601;28;654380;-70
2022/06/16 02:02:17;;;;;;;11.03;4.47;;;11.40;99.90;;;;;;4373211;28;655528;-70
2022/06/16 02:05:09;;;;;;;11.17;5.33;;;11.30;99.90;;;;;;4390243;28;655734;-71
2022/06/16 02:07:57;;;;;;;10.27;4.50;;;11.40;99.90;;;;;;4389884;28;655926;-70
2022/06/16 02:10:46;;;;;;;13.67;5.40;;;11.40;99.90;;;;;;4408379;28;657027;-70
2022/06/16 02:13:34;;;;;;;10.07;4.87;;;11.40;99.90;;;;;;4410874;28;656400;-70
2022/06/16 02:16:23;;;;;;;10.07;4.93;;;11.40;99.90;;;;;;4387003;28;656356;-71
2022/06/16 02:19:12;;;;;;;9.47;4.93;;;11.40;99.90;;;;;;4392020;28;656114;-70
2022/06/16 02:22:02;;;;;;;13.10;5.37;;;11.40;99.90;;;;;;4411977;28;654685;-71
2022/06/16 02:24:49;;;;;;;9.83;5.00;;;11.40;99.90;;;;;;4408498;28;655279;-70
2022/06/16 02:27:36;;;;;;;10.37;5.00;;;11.30;99.90;;;;;;4392269;28;654538;-71
2022/06/16 02:30:23;;;;;;;7.30;5.00;;;11.30;99.90;;;;;;4410972;28;655774;-71
2022/06/16 02:33:13;;;;;;;12.23;5.53;;;11.40;99.90;;;;;;4389909;28;654518;-71
2022/06/16 02:36:03;;;;;;;8.70;5.30;;;11.50;99.90;;;;;;4396517;28;655660;-71
2022/06/16 02:38:58;;;;;;;9.40;5.27;;;11.40;99.90;;;;;;4387254;28;654406;-71
2022/06/16 02:41:49;;;;;;;10.40;4.97;;;11.30;99.90;;;;;;4380116;28;654722;-71
2022/06/16 02:44:46;;;;;;;10.23;5.47;;;11.30;99.90;;;;;;4387542;28;655354;-70
2022/06/16 02:47:47;;;;;;;12.37;5.23;;;11.40;99.90;;;;;;4382440;28;655659;-70
2022/06/16 02:50:40;;;;;;;11.07;4.80;;;11.40;99.90;;;;;;4384260;28;655549;-71
2022/06/16 02:53:33;;;;;;;7.53;4.90;;;11.50;99.90;;;;;;4346492;28;656156;-70
2022/06/16 02:56:26;;;;;;;13.10;4.90;;;11.60;99.90;;;;;;4362800;28;654560;-71
2022/06/16 02:59:15;;;;;;;11.23;5.27;;;11.50;99.90;;;;;;4384153;28;656332;-68
2022/06/16 03:02:03;;;;;;;9.47;5.10;;;11.60;99.90;;;;;;4383755;28;657254;-69
2022/06/16 03:04:51;;;;;;;11.27;5.30;;;11.70;99.90;;;;;;4384829;28;654761;-69
2022/06/16 03:07:39;;;;;;;7.73;5.03;;;11.90;99.90;;;;;;4410002;28;656107;-68
2022/06/16 03:13:30;;;;;;;14.60;5.13;;;11.80;99.90;;;;;;4366761;28;655327;-69
2022/06/16 03:16:17;;;;;;;10.87;4.90;;;11.80;99.90;;;;;;4384840;28;656711;-69
2022/06/16 03:19:04;;;;;;;10.13;5.40;;;11.70;99.90;;;;;;4403798;28;655482;-68
2022/06/16 03:21:52;;;;;;;9.10;5.17;;;11.60;99.90;;;;;;4385374;28;655708;-69
2022/06/16 03:24:39;;;;;;;11.23;5.37;;;11.70;99.90;;;;;;4411395;28;655019;-68
2022/06/16 03:27:26;;;;;;;13.10;4.93;;;11.60;99.90;;;;;;4389249;28;655631;-68
2022/06/16 03:30:14;;;;;;;7.13;4.57;;;11.60;99.90;;;;;;4403678;28;657058;-68
2022/06/16 03:33:01;;;;;;;9.87;5.17;;;11.50;99.90;;;;;;4385075;28;654683;-69
2022/06/16 03:35:48;;;;;;;9.83;5.40;;;11.60;99.90;;;;;;4411804;28;654645;-69
2022/06/16 03:38:40;;;;;;;10.13;5.20;;;11.50;99.90;;;;;;4390342;28;654454;-68
2022/06/16 03:41:28;;;;;;;9.30;5.20;;;11.60;99.90;;;;;;4388512;28;656692;-69
2022/06/16 03:44:15;;;;;;;11.00;5.20;;;11.70;99.90;;;;;;4398349;28;654754;-69
2022/06/16 03:47:04;;;;;;;9.55;5.43;;;11.80;99.90;;;;;;4408068;28;656154;-69
2022/06/16 03:49:52;;;;;;;14.00;5.50;;;12.00;99.90;;;;;;4388699;28;655476;-69
2022/06/16 03:52:39;;;;;;;8.37;4.90;;;12.10;99.90;;;;;;4403286;28;655652;-68
2022/06/16 03:55:26;;;;;;;7.20;4.47;;;12.40;99.90;;;;;;4385380;28;654410;-69
2022/06/16 03:58:14;;;;;;;9.67;4.67;;;12.60;99.90;;;;;;4400215;28;654940;-69
2022/06/16 04:01:01;;;;;;;7.80;4.50;;;12.60;99.90;;;;;;4386345;28;654076;-69
2022/06/16 04:04:01;;;;;;;8.02;4.70;;;12.80;99.90;;;;;;4400982;28;654490;-68
2022/06/16 04:06:51;;;;;;;7.80;4.70;;;13.10;99.90;;;;;;4372673;28;655337;-69
2022/06/16 04:09:38;;;;;;;9.03;4.33;;;13.40;99.90;;;;;;4387341;28;655609;-69
2022/06/16 04:12:25;;;;;;;10.97;4.60;;;13.40;99.90;;;;;;4390992;28;655455;-70
2022/06/16 04:15:12;;;;;;;8.47;4.53;;;13.70;99.90;;;;;;4404278;28;655963;-69
2022/06/16 04:18:00;;;;;;;11.17;4.63;;;13.90;99.90;;;;;;4406855;28;655362;-70
2022/06/16 04:20:49;;;;;;;8.37;4.27;;;14.10;99.90;;;;;;4413923;28;655274;-69
2022/06/16 04:23:36;;;;;;;15.07;4.53;;;14.30;99.90;;;;;;4391983;28;654077;-69
2022/06/16 04:26:23;;;;;;;8.93;4.23;;;14.50;99.90;;;;;;4412152;28;656411;-68
2022/06/16 04:29:11;;;;;;;8.57;4.40;;;14.80;99.90;;;;;;4386033;28;654656;-69
2022/06/16 04:31:58;;;;;;;15.73;4.23;;;14.80;99.90;;;;;;4407204;28;655572;-69
2022/06/16 04:34:45;;;;;;;8.60;4.27;;;14.90;99.90;;;;;;4399528;28;655693;-69
2022/06/16 04:37:34;;;;;;;9.23;4.00;;;14.90;99.90;;;;;;4414885;28;654555;-69
2022/06/16 04:40:21;;;;;;;9.20;4.10;;;14.90;99.90;;;;;;4385315;28;654794;-69
2022/06/16 04:43:08;;;;;;;8.10;4.50;;;15.10;99.90;;;;;;4398500;28;655545;-69
2022/06/16 04:45:56;;;;;;;5.97;3.97;;;15.00;99.90;;;;;;4389648;28;655185;-69
2022/06/16 04:48:44;;;;;;;9.53;3.90;;;15.30;99.90;;;;;;4410106;28;656012;-69
2022/06/16 04:51:31;;;;;;;6.13;4.00;;;15.40;99.90;;;;;;4389791;28;654523;-70
2022/06/16 04:54:20;;;;;;;9.80;4.30;;;15.40;99.90;;;;;;4407720;28;655590;-70
2022/06/16 04:57:07;;;;;;;6.30;4.17;;;15.40;99.90;;;;;;4387883;28;655632;-69
2022/06/16 04:59:54;;;;;;;9.87;4.13;;;15.50;99.90;;;;;;4405521;28;654949;-69
2022/06/16 05:02:41;;;;;;;6.63;4.40;;;15.50;99.90;;;;;;4391251;28;654869;-69
2022/06/16 05:05:29;;;;;;;7.73;3.87;;;15.60;99.90;;;;;;4409363;28;655822;-69
2022/06/16 05:08:17;;;;;;;8.13;4.37;;;15.60;99.90;;;;;;4389388;28;654808;-70
2022/06/16 05:11:05;;;;;;;16.83;4.20;;;15.80;99.90;;;;;;4403700;28;654726;-69
2022/06/16 05:13:52;;;;;;;7.10;3.80;;;16.10;99.90;;;;;;4384841;28;655881;-69
2022/06/16 05:16:39;;;;;;;7.27;4.00;;;16.40;99.90;;;;;;4409349;28;655295;-69
2022/06/16 05:19:30;;;;;;;7.80;3.87;;;16.60;99.90;;;;;;4386655;28;654663;-69
2022/06/16 05:22:18;;;;;;;5.90;3.60;;;16.70;99.90;;;;;;4395170;28;655707;-69
2022/06/16 05:25:06;;;;;;;6.70;3.80;;;16.80;99.90;;;;;;4397641;28;653949;-70
2022/06/16 05:27:54;;;;;;;8.27;3.77;;;17.00;99.90;;;;;;4408713;28;655170;-69
2022/06/16 05:30:41;;;;;;;9.57;3.63;;;17.20;99.90;;;;;;4389493;28;655061;-69
2022/06/16 05:33:29;;;;;;;7.13;3.33;;;17.30;99.90;;;;;;4403428;28;654494;-69
2022/06/16 05:36:18;;;;;;;9.07;4.00;;;17.40;99.90;;;;;;4388144;28;654455;-69
2022/06/16 05:39:05;;;;;;;8.75;3.90;;;17.60;99.90;;;;;;4392523;28;654503;-69
2022/06/16 05:41:52;;;;;;;9.07;3.77;;;17.60;99.90;;;;;;4408559;28;654833;-69
2022/06/16 05:44:41;;;;;;;10.87;3.63;;;17.60;99.90;;;;;;4404773;28;653833;-69
2022/06/16 05:47:28;;;;;;;11.30;3.53;;;17.70;99.90;;;;;;4382114;28;655667;-69
2022/06/16 05:50:15;;;;;;;6.57;3.33;;;17.80;99.90;;;;;;4390074;28;655346;-69
2022/06/16 05:53:02;;;;;;;7.57;3.30;;;17.90;99.90;;;;;;4405521;28;656347;-69
2022/06/16 05:55:50;;;;;;;7.93;3.40;;;17.90;99.90;;;;;;4403170;28;654655;-69
2022/06/16 05:58:37;;;;;;;8.43;3.40;;;18.10;99.90;;;;;;4411015;28;653767;-69
2022/06/16 06:01:26;;;;;;;13.40;3.93;;;18.20;99.90;;;;;;4400696;28;654676;-69
2022/06/16 06:04:13;;;;;;;6.43;3.30;;;18.40;99.90;;;;;;4386709;28;656485;-69
2022/06/16 06:07:00;;;;;;;6.37;3.10;;;18.60;99.90;;;;;;4398974;28;654581;-70
2022/06/16 06:19:23;;;;;;;8.73;3.07;;;19.00;96.90;;;;;;4359712;28;655898;-69
2022/06/16 06:22:13;;;;;;;5.60;2.67;;;19.10;99.90;;;;;;4364832;28;654850;-69
2022/06/16 06:25:00;;;;;;;6.90;2.80;;;19.20;97.40;;;;;;4387050;28;654712;-69
2022/06/16 06:27:47;;;;;;;8.70;3.17;;;19.30;94.80;;;;;;4409743;28;655343;-69
2022/06/16 06:30:35;;;;;;;5.67;2.90;;;19.40;99.90;;;;;;4397409;28;654380;-69
2022/06/16 06:33:22;;;;;;;7.67;2.97;;;19.20;92.20;;;;;;4402631;28;654330;-69
2022/06/16 06:36:11;;;;;;;5.50;2.70;;;19.50;94.40;;;;;;4403428;28;655047;-69
2022/06/16 06:38:58;;;;;;;6.43;2.70;;;19.70;91.70;;;;;;4379058;28;655687;-69
2022/06/16 06:41:45;;;;;;;4.67;2.67;;;19.80;91.20;;;;;;4385604;28;655112;-65
2022/06/16 06:44:32;;;;;;;8.68;3.15;;;20.00;87.30;;;;;;4406881;28;654860;-65
2022/06/16 06:47:21;;;;;;;3.57;2.50;;;20.30;90.00;;;;;;4399320;28;654208;-65
2022/06/16 06:50:09;;;;;;;7.63;2.70;;;20.20;89.40;;;;;;4379523;28;655928;-65
2022/06/16 06:52:57;;;;;;;6.00;3.00;;;20.30;85.50;;;;;;4382554;28;654570;-65
2022/06/16 06:55:46;;;;;;;7.87;3.03;;;20.20;85.10;;;;;;4404535;28;655168;-65
2022/06/16 06:58:33;;;;;;;8.83;3.07;;;20.40;83.80;;;;;;4382962;28;655045;-65
2022/06/16 07:01:20;;;;;;;6.87;3.20;;;20.70;88.70;;;;;;4384880;28;654388;-65
2022/06/16 07:04:07;;;;;;;5.53;2.73;;;20.70;85.30;;;;;;4408312;28;654336;-65
2022/06/16 07:06:54;;;;;;;6.23;3.10;;;20.80;84.00;;;;;;4402950;28;654933;-65
2022/06/16 07:09:43;;;;;;;9.23;3.20;;;21.10;87.80;;;;;;4386616;28;654239;-65
2022/06/16 07:12:30;;;;;;;4.80;3.10;;;21.50;89.90;;;;;;4388081;28;654451;-65
2022/06/16 07:15:17;;;;;;;7.10;3.37;;;21.40;83.90;;;;;;4411885;28;653477;-65
2022/06/16 07:18:06;;;;;;;5.73;2.87;;;21.20;82.80;;;;;;4404354;28;654239;-65
2022/06/16 07:20:53;;;;;;;5.20;3.10;;;21.40;80.40;;;;;;4378256;28;655328;-65
2022/06/16 07:23:40;;;;;;;9.10;3.60;;;21.50;91.30;;;;;;4390437;28;654613;-65
2022/06/16 07:26:29;;;;;;;8.23;3.40;;;21.80;86.00;;;;;;4406958;28;654026;-65
2022/06/16 07:29:16;;;;;;;7.70;3.73;;;22.00;84.30;;;;;;4387460;28;654587;-65
2022/06/16 07:32:03;;;;;;;6.33;3.47;;;21.90;85.60;;;;;;4404149;28;654360;-65
2022/06/16 07:34:50;;;;;;;8.07;3.40;;;22.00;85.80;;;;;;4386592;28;654797;-65
2022/06/16 07:37:37;;;;;;;6.83;3.83;;;22.20;87.60;;;;;;4411968;28;655404;-65
2022/06/16 07:40:25;;;;;;;5.27;3.13;;;22.20;83.40;;;;;;4402801;28;654663;-65
2022/06/16 07:43:14;;;;;;;6.90;3.00;;;22.40;91.20;;;;;;4409663;28;655212;-65
2022/06/16 07:46:01;;;;;;;7.97;3.60;;;22.30;77.20;;;;;;4381634;28;654354;-65
2022/06/16 07:48:49;;;;;;;7.07;3.50;;;22.40;83.10;;;;;;4410949;28;656086;-65
2022/06/16 07:51:36;;;;;;;5.97;3.73;;;22.40;89.40;;;;;;4386567;28;654611;-65
2022/06/16 07:54:24;;;;;;;8.20;3.53;;;22.40;82.30;;;;;;4401798;28;655787;-65
2022/06/16 07:57:11;;;;;;;7.77;3.70;;;22.70;88.10;;;;;;4386823;28;655449;-65
2022/06/16 07:59:59;;;;;;;8.37;3.33;;;22.70;87.10;;;;;;4407700;28;656682;-65
2022/06/16 08:02:47;;;;;;;10.47;3.30;;;22.80;82.20;;;;;;4391664;28;654677;-65
2022/06/16 08:05:34;;;;;;;4.53;3.10;;;22.30;79.10;;;;;;4394832;28;655392;-65
2022/06/16 08:08:22;;;;;;;7.53;2.40;;;22.70;83.20;;;;;;4387882;28;654607;-65
2022/06/16 08:12:03;;;;;;;3.97;2.57;;;22.80;73.30;;;;;;4389765;28;654616;-65
2022/06/16 08:14:18;;;;;;;3.47;2.23;;;22.80;73.60;;;;;;4359424;28;654755;-65
2022/06/16 08:17:07;;;;;;;5.50;2.10;;;22.50;71.40;;;;;;4392182;28;654567;-65
2022/06/16 08:19:55;;;;;;;4.20;2.50;;;22.50;71.20;;;;;;4400107;28;654280;-65
2022/06/16 08:22:42;;;;;;;7.37;2.50;;;22.40;67.50;;;;;;4380015;28;655091;-65
2022/06/16 08:25:29;;;;;;;4.60;2.50;;;23.00;70.60;;;;;;4402018;28;655536;-65
2022/06/16 08:28:19;;;;;;;7.53;2.30;;;23.10;70.70;;;;;;4394359;28;654251;-65
2022/06/16 08:31:06;;;;;;;6.47;2.53;;;23.00;69.80;;;;;;4388293;28;655117;-65
2022/06/16 08:33:55;;;;;;;6.03;2.60;;;23.70;79.50;;;;;;4414536;28;655024;-65
2022/06/16 08:36:42;;;;;;;5.83;2.57;;;23.70;70.70;;;;;;4380493;28;655576;-65
2022/06/16 08:39:29;;;;;;;7.00;2.70;;;23.60;66.30;;;;;;4403622;28;655345;-65
2022/06/16 08:42:20;;;;;;;4.40;2.50;;;23.60;65.70;;;;;;4386406;28;654426;-65
2022/06/16 08:45:09;;;;;;;4.87;2.60;;;24.30;70.50;;;;;;4384771;28;656778;-66
2022/06/16 08:48:04;;;;;;;5.88;2.50;;;24.60;67.40;;;;;;4392486;28;654741;-65
2022/06/16 08:50:56;;;;;;;6.43;2.50;;;23.60;62.30;;;;;;4391709;28;655566;-65
2022/06/16 08:54:02;;;;;;;4.17;2.47;;;23.40;64.10;;;;;;4383398;28;655305;-65
2022/06/16 08:56:54;;;;;;;7.90;2.77;;;23.60;65.30;;;;;;4384749;28;655993;-65
2022/06/16 08:59:46;;;;;;;3.83;2.40;;;23.50;67.60;;;;;;4362616;28;654721;-65
2022/06/16 09:02:37;;;;;;;4.67;2.60;;;24.00;67.70;;;;;;4382010;28;655133;-65
2022/06/16 09:05:32;;;;;;;5.40;2.20;;;23.60;64.20;;;;;;4390632;28;654793;-65
2022/06/16 09:08:29;;;;;;;5.00;2.40;;;23.80;68.90;;;;;;4388554;28;654380;-65
2022/06/16 09:11:20;;;;;;;5.43;2.20;;;24.10;75.80;;;;;;4379203;28;654804;-65
2022/06/16 09:15:10;;;;;;;5.27;2.23;;;25.00;71.00;;;;;;4375027;28;655145;-65
2022/06/16 09:17:32;;;;;;;3.08;2.03;;;25.50;70.80;;;;;;4382899;28;654734;-65
2022/06/16 09:20:22;;;;;;;9.20;2.20;;;24.80;59.80;;;;;;4383925;28;655208;-65
2022/06/16 09:23:25;;;;;;;4.65;2.28;;;24.90;65.80;;;;;;4389636;28;655054;-65
2022/06/16 09:26:18;;;;;;;5.40;2.35;;;24.80;64.50;;;;;;4367079;28;654839;-66
2022/06/16 09:29:08;;;;;;;6.03;2.70;;;24.50;61.10;;;;;;4373546;28;654686;-65
2022/06/16 09:31:57;;;;;;;5.50;2.50;;;24.70;63.60;;;;;;4381708;28;654515;-65
2022/06/16 09:34:46;;;;;;;4.80;2.60;;;24.90;63.70;;;;;;4404927;28;654707;-65
2022/06/16 09:37:36;;;;;;;3.72;2.28;;;24.60;65.30;;;;;;4393912;28;654283;-65
2022/06/16 09:40:28;;;;;;;4.20;2.30;;;24.50;59.70;;;;;;4392957;28;655035;-65
2022/06/16 09:43:17;;;;;;;4.47;2.53;;;24.30;63.90;;;;;;4358608;28;654252;-65
2022/06/16 09:46:06;;;;;;;6.37;2.60;;;24.30;62.90;;;;;;4400517;28;654155;-65
2022/06/16 09:48:55;;;;;;;5.70;2.73;;;24.90;65.30;;;;;;4376998;28;655709;-65
2022/06/16 09:51:46;;;;;;;5.25;2.53;;;25.80;66.90;;;;;;4382296;28;655335;-65
2022/06/16 09:54:35;;;;;;;6.72;2.63;;;25.60;69.80;;;;;;4377455;28;654962;-65
2022/06/16 09:57:26;;;;;;;6.68;2.80;;;25.80;68.40;;;;;;4375976;28;655049;-66
2022/06/16 10:00:15;;;;;;;3.25;1.88;;;26.00;63.40;;;;;;4387966;28;655019;-65
2022/06/16 10:03:13;;;;;;;4.57;2.72;;;25.10;60.20;;;;;;4376831;28;655267;-65
2022/06/16 10:06:14;;;;;;;5.28;2.28;;;25.20;60.40;;;;;;4382499;28;654627;-65
2022/06/16 10:09:08;;;;;;;3.60;2.30;;;25.50;62.30;;;;;;4357520;28;655664;-65
2022/06/16 10:12:00;;;;;;;3.58;2.20;;;24.60;60.80;;;;;;4357729;28;654659;-65
2022/06/16 10:14:50;;;;;;;5.47;2.33;;;25.50;60.40;;;;;;4376082;28;655711;-65
2022/06/16 10:17:37;;;;;;;4.25;2.13;;;25.60;59.00;;;;;;4386449;28;656182;-65
2022/06/16 10:20:25;;;;;;;6.30;2.10;;;25.50;61.00;;;;;;4395517;28;656491;-66
2022/06/16 10:23:16;;;;;;;7.28;2.30;;;25.40;58.40;;;;;;4410785;28;654664;-65
2022/06/16 10:26:04;;;;;;;3.42;2.03;;;25.70;57.60;;;;;;4378944;28;654721;-65
2022/06/16 10:29:03;;;;;;;2.28;2.00;;;26.60;60.20;;;;;;4383552;28;655368;-66
2022/06/16 10:31:52;;;;;;;3.08;1.50;;;25.60;56.40;;;;;;4356440;28;654412;-65
2022/06/16 10:34:40;;;;;;;2.97;1.70;;;25.60;62.00;;;;;;4405273;28;654655;-65
2022/06/16 10:37:29;;;;;;;3.00;1.85;;;25.90;54.40;;;;;;4363341;28;656628;-65
2022/06/16 10:40:18;;;;;;;4.72;2.20;;;25.30;56.30;;;;;;4368334;28;654734;-65
2022/06/16 10:43:08;;;;;;;4.13;2.20;;;25.30;55.00;;;;;;4390507;28;654195;-65
2022/06/16 10:45:57;;;;;;;4.38;1.83;;;25.20;59.70;;;;;;4364796;28;654827;-65
2022/06/16 10:48:48;;;;;;;4.85;2.15;;;25.10;55.40;;;;;;4383775;28;654618;-65
2022/06/16 10:51:36;;;;;;;1.90;1.58;;;25.00;55.20;;;;;;4340384;28;654989;-65
2022/06/16 10:54:28;;;;;;;3.47;1.75;;;25.40;58.20;;;;;;4384783;28;655097;-65
2022/06/16 10:57:18;;;;;;;3.05;1.88;;;25.70;54.20;;;;;;4341757;28;655853;-65
2022/06/16 11:00:08;;;;;;;2.10;1.83;;;25.40;55.60;;;;;;4366347;28;654266;-65
2022/06/16 11:03:01;;;;;;;3.15;1.73;;;26.10;59.40;;;;;;4371847;28;654769;-65
2022/06/16 11:05:52;;;;;;;3.58;1.63;;;26.20;53.50;;;;;;4359758;28;654814;-65
2022/06/16 11:08:40;;;;;;;3.38;1.83;;;26.40;54.70;;;;;;4363693;28;654691;-65
2022/06/16 11:11:39;;;;;;;5.10;1.90;;;26.10;52.50;;;;;;4365067;28;655315;-65
2022/06/16 11:14:31;;;;;;;3.45;1.92;;;26.80;56.10;;;;;;4364478;28;654350;-65
2022/06/16 11:17:21;;;;;;;4.57;1.88;;;27.00;53.70;;;;;;4363138;28;654950;-65
2022/06/16 11:20:15;;;;;;;4.28;1.95;;;27.00;51.10;;;;;;4366399;28;654742;-66
2022/06/16 11:23:25;;;;;;;4.72;1.77;;;26.30;52.10;;;;;;4338022;28;656211;-65
2022/06/16 11:26:20;;;;;;;3.92;1.70;;;25.90;52.80;;;;;;4362173;28;654098;-65
2022/06/16 11:29:21;;;;;;;3.25;1.98;;;25.80;53.50;;;;;;4340627;28;655909;-65
2022/06/16 11:32:14;;;;;;;9.45;1.90;;;25.80;52.50;;;;;;4360029;28;654523;-65
2022/06/16 11:35:01;;;;;;;4.10;1.80;;;25.50;55.00;;;;;;4367648;28;654464;-65
2022/06/16 11:37:50;;;;;;;4.00;1.70;;;25.20;55.90;;;;;;4376668;28;654508;-65
2022/06/16 11:40:42;;;;;;;5.88;2.10;;;25.70;55.60;;;;;;4371336;28;655684;-65
2022/06/16 11:43:58;;;;;;;4.18;2.20;;;26.40;54.80;;;;;;4366132;28;654156;-65
2022/06/16 11:46:48;;;;;;;6.93;1.98;;;26.00;53.50;;;;;;4350631;28;654471;-66
2022/06/16 11:49:37;;;;;;;3.90;1.80;;;26.90;54.40;;;;;;4360316;28;655333;-66
2022/06/16 11:52:26;;;;;;;4.45;1.77;;;27.40;54.50;;;;;;4387606;28;654644;-66
2022/06/16 11:55:22;;;;;;;3.33;1.80;;;28.00;52.20;;;;;;4366494;28;655799;-66
2022/06/16 11:58:25;;;;;;;4.57;1.80;;;27.00;53.80;;;;;;4368178;28;655090;-66
2022/06/16 12:01:14;;;;;;;4.20;1.73;;;26.20;50.60;;;;;;4371662;28;654814;-65
2022/06/16 12:04:24;;;;;;;5.40;1.70;;;25.90;56.00;;;;;;4367566;28;654315;-65
2022/06/16 12:07:27;;;;;;;5.40;2.17;;;26.50;55.60;;;;;;4340709;28;655975;-65
2022/06/16 12:10:20;;;;;;;7.63;1.83;;;26.30;52.90;;;;;;4362389;28;654598;-65
2022/06/16 12:13:12;;;;;;;3.15;1.83;;;25.80;52.60;;;;;;4367643;28;654250;-65
2022/06/16 12:16:05;;;;;;;3.03;1.77;;;26.40;56.60;;;;;;4360686;28;655581;-66
2022/06/16 12:18:58;;;;;;;4.05;1.83;;;26.20;51.10;;;;;;4373370;28;654924;-66
2022/06/16 12:21:47;;;;;;;7.35;2.00;;;26.60;52.30;;;;;;4353138;28;654775;-66
2022/06/16 12:24:37;;;;;;;6.80;1.73;;;26.70;51.50;;;;;;4392070;28;654488;-65
2022/06/16 12:27:26;;;;;;;7.85;1.90;;;26.60;55.20;;;;;;4368452;28;654257;-66
2022/06/16 12:30:15;;;;;;;3.42;1.70;;;25.70;53.50;;;;;;4370572;28;654578;-66
2022/06/16 12:33:06;;;;;;;2.67;1.52;;;25.80;55.10;;;;;;4366830;28;655402;-66
2022/06/16 12:35:56;;;;;;;2.72;1.85;;;25.80;56.50;;;;;;4374938;28;654552;-66
2022/06/16 12:38:46;;;;;;;4.35;2.45;;;25.40;53.00;;;;;;4382558;28;654823;-65
2022/06/16 12:41:35;;;;;;;7.35;2.72;;;25.10;53.80;;;;;;4381100;28;654921;-65
2022/06/16 12:44:26;;;;;;;7.07;2.95;;;24.90;54.60;;;;;;4382896;28;654683;-65
2022/06/16 12:47:17;;;;;;;3.25;1.98;;;25.10;56.10;;;;;;4379939;28;655058;-65
2022/06/16 12:50:08;;;;;;;6.28;2.72;;;25.30;61.80;;;;;;4380607;28;654554;-65
2022/06/16 12:52:58;;;;;;;3.08;1.95;;;25.60;59.20;;;;;;4368927;28;655381;-66
2022/06/16 12:55:46;;;;;;;3.83;1.70;;;25.80;54.90;;;;;;4392286;28;654551;-66
2022/06/16 12:58:35;;;;;;;3.65;1.90;;;26.00;57.10;;;;;;4399674;28;654890;-66
2022/06/16 13:01:22;;;;;;;4.70;2.10;;;25.50;58.30;;;;;;4384229;28;654923;-65
2022/06/16 13:04:12;;;;;;;10.45;2.30;;;25.40;56.90;;;;;;4407075;28;654918;-66
2022/06/16 13:07:01;;;;;;;2.72;2.10;;;25.70;57.30;;;;;;4405414;28;655998;-65
2022/06/16 13:09:49;;;;;;;2.65;2.17;;;25.80;56.30;;;;;;4383915;28;655157;-66
2022/06/16 13:12:36;;;;;;;5.50;2.00;;;26.10;59.30;;;;;;4389895;28;655572;-66
2022/06/16 13:15:27;;;;;;;5.60;2.13;;;25.70;55.50;;;;;;4405726;28;654460;-65
2022/06/16 13:18:15;;;;;;;4.15;2.38;;;25.30;54.80;;;;;;4381710;28;654512;-65
2022/06/16 13:21:06;;;;;;;6.70;2.20;;;24.90;61.70;;;;;;4387211;28;655978;-65
2022/06/16 13:24:02;;;;;;;3.85;2.20;;;24.80;61.40;;;;;;4384260;28;656373;-65
2022/06/16 13:27:06;;;;;;;4.25;2.40;;;24.70;64.10;;;;;;4387641;28;654422;-65
2022/06/16 13:30:00;;;;;;;4.30;1.98;;;24.30;59.60;;;;;;4378228;28;654639;-65
2022/06/16 13:33:02;;;;;;;13.45;3.17;;;24.10;61.60;;;;;;4360506;28;654896;-64
2022/06/16 13:36:07;;;;;;;8.48;3.50;;;24.00;69.90;;;;;;4386443;28;655902;-65
2022/06/16 13:38:56;;;;;;;12.40;3.75;;;23.20;99.90;;;;;;4390001;28;654186;-64
2022/06/16 13:41:43;;;;;;;10.43;3.77;;;21.30;99.90;;;;;;4382201;28;656234;-65
2022/06/16 13:44:30;;;;;;;7.53;3.57;;;20.40;99.90;;;;;;4383714;28;657998;-64
2022/06/16 13:47:22;;;;;;;9.33;3.90;;;20.10;99.90;;;;;;4403705;28;655189;-64
2022/06/16 13:50:17;;;;;;;7.77;3.57;;;20.00;99.90;;;;;;4388189;28;654454;-64
2022/06/16 13:53:05;;;;;;;10.43;4.07;;;20.00;99.90;;;;;;4379665;28;654470;-65
2022/06/16 13:55:57;;;;;;;8.87;3.90;;;20.10;99.90;;;;;;4382117;28;656509;-65
2022/06/16 13:59:24;;;;;;;8.30;4.27;;;20.10;99.90;;;;;;4401194;28;654708;-65
2022/06/16 14:02:12;;;;;;;9.07;4.30;;;19.60;99.90;;;;;;4349536;28;655279;-64
2022/06/16 14:05:01;;;;;;;9.03;4.03;;;19.30;99.90;;;;;;4399152;28;654528;-65
2022/06/16 14:07:53;;;;;;;8.80;4.50;;;19.70;99.90;;;;;;4409081;28;656463;-65
2022/06/16 14:10:46;;;;;;;28.03;5.13;;;19.50;99.90;;;;;;4361977;28;654287;-64
2022/06/16 14:13:40;;;;;;;6.30;2.50;;;19.20;99.90;;;;;;4383998;28;655937;-64
2022/06/16 14:16:34;;;;;;;5.93;3.00;;;19.40;99.90;;;;;;4363945;28;655270;-64
2022/06/16 14:19:27;;;;;;;11.90;3.80;;;18.70;99.90;;;;;;4388992;28;654585;-64
2022/06/16 14:22:16;;;;;;;15.13;3.70;;;17.70;99.90;;;;;;4386884;28;655305;-66
2022/06/16 14:25:07;;;;;;;4.43;2.30;;;17.10;99.90;;;;;;4377413;28;656074;-66
2022/06/16 14:27:56;;;;;;;5.83;2.87;;;17.10;99.90;;;;;;4387577;28;655149;-66
2022/06/16 14:30:47;;;;;;;8.07;2.83;;;17.40;99.90;;;;;;4387518;28;655269;-67
2022/06/16 14:33:37;;;;;;;7.93;3.10;;;17.40;99.90;;;;;;4387395;28;654942;-66
2022/06/16 14:36:25;;;;;;;6.60;3.00;;;17.10;99.90;;;;;;4379923;28;654347;-65
2022/06/16 14:39:17;;;;;;;6.07;3.10;;;17.00;99.90;;;;;;4382101;28;654601;-65
2022/06/16 14:42:05;;;;;;;6.43;3.47;;;16.90;99.90;;;;;;4388983;28;654281;-64
2022/06/16 14:44:54;;;;;;;5.77;3.17;;;17.10;99.90;;;;;;4390405;28;654996;-64
2022/06/16 14:47:45;;;;;;;5.63;2.90;;;17.40;99.90;;;;;;4391197;28;654573;-64
2022/06/16 14:50:34;;;;;;;4.83;2.60;;;17.60;99.90;;;;;;4387431;28;655295;-64